createdAt,value
2023-05-11T00:00:49.221Z,101225.34
2023-05-11T00:03:16.372Z,101232.31
2023-05-11T00:05:47.776Z,101219.63
2023-05-11T00:08:17.139Z,101218.16
2023-05-11T00:10:48.607Z,101227.00
2023-05-11T00:13:16.170Z,101219.63
2023-05-11T00:15:43.302Z,101217.78
2023-05-11T00:18:10.502Z,101210.63
2023-05-11T00:20:37.507Z,101216.75
2023-05-11T00:23:04.520Z,101222.88
2023-05-11T00:25:31.528Z,101210.00
2023-05-11T00:27:58.471Z,101219.81
2023-05-11T00:30:25.771Z,101220.03
2023-05-11T00:32:52.785Z,101208.56
2023-05-11T00:35:19.857Z,101210.19
2023-05-11T00:37:46.891Z,101210.41
2023-05-11T00:40:13.876Z,101203.66
2023-05-11T00:42:40.932Z,101207.94
2023-05-11T00:45:08.445Z,101205.09
2023-05-11T00:47:35.375Z,101205.91
2023-05-11T00:50:02.505Z,101206.09
2023-05-11T00:52:30.495Z,101208.38
2023-05-11T00:54:57.479Z,101202.63
2023-05-11T00:57:24.524Z,101204.25
2023-05-11T00:59:51.421Z,101205.06
2023-05-11T01:02:18.849Z,101215.31
2023-05-11T01:04:46.277Z,101208.38
2023-05-11T01:07:24.220Z,101210.59
2023-05-11T01:10:24.401Z,101211.44
2023-05-11T01:13:07.501Z,101200.59
2023-05-11T01:15:51.071Z,101211.63
2023-05-11T01:18:28.825Z,101192.81
2023-05-11T01:21:05.843Z,101195.88
2023-05-11T01:24:13.794Z,101199.16
2023-05-11T01:27:18.376Z,101210.38
2023-05-11T01:29:50.543Z,101201.00
2023-05-11T01:32:23.576Z,101200.19
2023-05-11T01:35:02.865Z,101194.63
2023-05-11T01:37:33.518Z,101192.59
2023-05-11T01:40:07.235Z,101202.84
2023-05-11T01:42:49.081Z,101191.59
2023-05-11T01:45:17.318Z,101196.09
2023-05-11T01:47:48.441Z,101195.88
2023-05-11T01:50:19.537Z,101203.84
2023-05-11T01:52:48.935Z,101194.84
2023-05-11T01:55:21.277Z,101193.00
2023-05-11T01:57:53.530Z,101192.59
2023-05-11T02:00:21.328Z,101198.97
2023-05-11T02:02:49.302Z,101196.91
2023-05-11T02:05:21.749Z,101193.22
2023-05-11T02:07:51.351Z,101204.66
2023-05-11T02:10:20.031Z,101211.16
2023-05-11T02:12:49.019Z,101212.81
2023-05-11T02:15:17.427Z,101211.03
2023-05-11T02:17:44.583Z,101212.81
2023-05-11T02:20:12.316Z,101216.16
2023-05-11T02:22:39.792Z,101210.16
2023-05-11T02:25:09.352Z,101217.28
2023-05-11T02:27:36.331Z,101223.06
2023-05-11T02:30:05.372Z,101214.31
2023-05-11T02:32:36.051Z,101223.44
2023-05-11T02:35:29.948Z,101216.13
2023-05-11T02:38:00.703Z,101226.97
2023-05-11T02:40:34.320Z,101230.25
2023-05-11T02:43:09.457Z,101221.25
2023-05-11T02:45:39.244Z,101235.78
2023-05-11T02:48:12.318Z,101215.72
2023-05-11T02:50:42.193Z,101220.25
2023-05-11T02:53:15.786Z,101219.03
2023-05-11T02:55:43.153Z,101233.75
2023-05-11T02:58:10.407Z,101225.75
2023-05-11T03:00:39.555Z,101230.25
2023-05-11T03:03:06.855Z,101232.63
2023-05-11T03:05:33.865Z,101228.22
2023-05-11T03:08:01.692Z,101224.31
2023-05-11T03:10:29.532Z,101227.19
2023-05-11T03:12:56.956Z,101225.56
2023-05-11T03:15:24.734Z,101230.06
2023-05-11T03:17:52.904Z,101227.81
2023-05-11T03:20:22.394Z,101229.25
2023-05-11T03:22:50.090Z,101232.88
2023-05-11T03:25:18.229Z,101233.13
2023-05-11T03:27:47.024Z,101230.00
2023-05-11T03:30:15.947Z,101224.06
2023-05-11T03:32:43.305Z,101225.97
2023-05-11T03:35:10.706Z,101222.25
2023-05-11T03:37:39.138Z,101230.88
2023-05-11T03:40:07.952Z,101234.53
2023-05-11T03:42:36.499Z,101232.94
2023-05-11T03:45:06.385Z,101226.16
2023-05-11T03:47:34.839Z,101224.53
2023-05-11T03:50:02.895Z,101222.28
2023-05-11T03:52:30.798Z,101221.47
2023-05-11T03:54:57.767Z,101223.50
2023-05-11T03:57:27.934Z,101229.22
2023-05-11T03:59:54.931Z,101230.06
2023-05-11T04:02:24.576Z,101220.81
2023-05-11T04:04:54.776Z,101222.28
2023-05-11T04:07:21.784Z,101217.72
2023-05-11T04:09:48.722Z,101225.94
2023-05-11T04:12:15.756Z,101223.06
2023-05-11T04:14:42.687Z,101219.34
2023-05-11T04:17:10.187Z,101221.84
2023-05-11T04:19:37.144Z,101222.63
2023-05-11T04:22:04.061Z,101223.69
2023-05-11T04:24:30.992Z,101219.75
2023-05-11T04:26:58.077Z,101224.06
2023-05-11T04:29:25.725Z,101218.13
2023-05-11T04:31:55.194Z,101223.44
2023-05-11T04:34:22.361Z,101222.94
2023-05-11T04:36:50.862Z,101227.13
2023-05-11T04:39:18.890Z,101225.47
2023-05-11T04:41:46.167Z,101227.56
2023-05-11T04:44:13.165Z,101239.88
2023-05-11T04:46:40.186Z,101230.25
2023-05-11T04:49:07.492Z,101228.66
2023-05-11T04:51:34.458Z,101230.97
2023-05-11T04:54:01.400Z,101235.47
2023-05-11T04:56:28.334Z,101221.97
2023-05-11T04:58:55.234Z,101243.97
2023-05-11T05:01:22.200Z,101258.69
2023-05-11T05:03:49.964Z,101254.19
2023-05-11T05:06:16.995Z,101247.66
2023-05-11T05:08:43.961Z,101249.47
2023-05-11T05:11:11.056Z,101248.91
2023-05-11T05:13:38.062Z,101245.00
2023-05-11T05:16:05.485Z,101251.34
2023-05-11T05:18:32.448Z,101258.69
2023-05-11T05:20:59.435Z,101244.72
2023-05-11T05:23:26.554Z,101268.25
2023-05-11T05:25:53.594Z,101260.25
2023-05-11T05:28:21.102Z,101260.66
2023-05-11T05:30:48.079Z,101282.72
2023-05-11T05:33:15.262Z,101279.66
2023-05-11T05:35:43.940Z,101288.44
2023-05-11T05:38:10.965Z,101275.28
2023-05-11T05:40:39.468Z,101278.72
2023-05-11T05:43:06.936Z,101271.81
2023-05-11T05:45:33.924Z,101290.31
2023-05-11T05:48:00.922Z,101280.97
2023-05-11T05:50:28.422Z,101287.97
2023-05-11T05:52:55.376Z,101289.56
2023-05-11T05:55:22.423Z,101299.03
2023-05-11T05:57:49.715Z,101293.84
2023-05-11T06:00:17.534Z,101292.59
2023-05-11T06:02:44.747Z,101297.03
2023-05-11T06:05:11.805Z,101297.88
2023-05-11T06:07:39.065Z,101294.59
2023-05-11T06:10:06.591Z,101296.31
2023-05-11T06:12:33.575Z,101288.44
2023-05-11T06:15:00.611Z,101299.28
2023-05-11T06:17:28.534Z,101294.19
2023-05-11T06:19:55.613Z,101299.53
2023-05-11T06:22:22.773Z,101304.06
2023-05-11T06:24:49.941Z,101298.84
2023-05-11T06:27:18.365Z,101297.63
2023-05-11T06:29:45.839Z,101302.81
2023-05-11T06:32:12.745Z,101301.41
2023-05-11T06:34:39.696Z,101303.44
2023-05-11T06:37:06.732Z,101298.72
2023-05-11T06:39:37.727Z,101304.28
2023-05-11T06:42:06.638Z,101313.00
2023-05-11T06:44:34.532Z,101305.75
2023-05-11T06:47:01.508Z,101305.81
2023-05-11T06:49:28.815Z,101313.59
2023-05-11T06:51:55.859Z,101314.59
2023-05-11T06:54:23.130Z,101312.94
2023-05-11T06:56:50.148Z,101309.00
2023-05-11T06:59:17.212Z,101313.44
2023-05-11T07:01:45.518Z,101306.75
2023-05-11T07:04:12.581Z,101317.50
2023-05-11T07:06:39.596Z,101306.69
2023-05-11T07:09:06.677Z,101316.22
2023-05-11T07:11:33.821Z,101308.91
2023-05-11T07:14:00.869Z,101319.34
2023-05-11T07:16:27.786Z,101307.25
2023-05-11T07:18:55.011Z,101304.16
2023-05-11T07:21:22.291Z,101317.31
2023-05-11T07:23:49.266Z,101320.78
2023-05-11T07:26:16.471Z,101313.03
2023-05-11T07:28:43.405Z,101314.09
2023-05-11T07:31:10.415Z,101324.53
2023-05-11T07:33:40.822Z,101325.19
2023-05-11T07:36:08.422Z,101329.50
2023-05-11T07:38:36.439Z,101320.88
2023-05-11T07:41:06.485Z,101315.72
2023-05-11T07:43:33.891Z,101334.09
2023-05-11T07:46:00.820Z,101332.50
2023-05-11T07:48:27.743Z,101332.53
2023-05-11T07:50:54.723Z,101339.31
2023-05-11T07:53:21.679Z,101327.97
2023-05-11T07:55:48.766Z,101329.84
2023-05-11T07:58:15.801Z,101324.66
2023-05-11T08:00:42.795Z,101317.44
2023-05-11T08:03:09.742Z,101322.41
2023-05-11T08:05:38.024Z,101326.13
2023-05-11T08:08:05.807Z,101321.16
2023-05-11T08:10:32.768Z,101321.19
2023-05-11T08:12:59.758Z,101330.16
2023-05-11T08:15:26.987Z,101320.81
2023-05-11T08:17:54.033Z,101330.41
2023-05-11T08:20:21.062Z,101334.81
2023-05-11T08:22:48.109Z,101342.16
2023-05-11T08:25:15.068Z,101337.88
2023-05-11T08:27:42.161Z,101342.84
2023-05-11T08:30:11.673Z,101339.91
2023-05-11T08:32:54.600Z,101341.97
2023-05-11T08:35:25.910Z,101351.25
2023-05-11T08:37:52.878Z,101338.72
2023-05-11T08:40:21.835Z,101333.22
2023-05-11T08:42:55.691Z,101339.72
2023-05-11T08:45:23.338Z,101337.97
2023-05-11T08:47:50.366Z,101353.13
2023-05-11T08:50:17.768Z,101351.44
2023-05-11T08:52:44.955Z,101338.34
2023-05-11T08:55:13.294Z,101349.13
2023-05-11T08:57:42.768Z,101346.78
2023-05-11T09:00:10.579Z,101354.03
2023-05-11T09:02:38.343Z,101337.63
2023-05-11T09:05:06.555Z,101337.44
2023-05-11T09:07:37.318Z,101357.44
2023-05-11T09:10:04.844Z,101343.50
2023-05-11T09:12:31.969Z,101343.78
2023-05-11T09:15:02.123Z,101338.69
2023-05-11T09:17:29.577Z,101347.25
2023-05-11T09:20:05.822Z,101341.97
2023-05-11T09:22:36.603Z,101351.13
2023-05-11T09:25:04.867Z,101352.16
2023-05-11T09:27:32.460Z,101345.13
2023-05-11T09:30:22.009Z,101357.47
2023-05-11T09:32:56.066Z,101349.22
2023-05-11T09:35:30.987Z,101350.06
2023-05-11T09:38:04.097Z,101347.84
2023-05-11T09:40:50.981Z,101340.19
2023-05-11T09:43:30.874Z,101350.84
2023-05-11T09:46:07.838Z,101345.56
2023-05-11T09:48:35.391Z,101343.84
2023-05-11T09:51:07.712Z,101340.56
2023-05-11T09:53:44.100Z,101337.00
2023-05-11T09:56:12.568Z,101344.09
2023-05-11T09:59:05.837Z,101338.53
2023-05-11T10:01:34.689Z,101345.00
2023-05-11T10:04:21.505Z,101346.91
2023-05-11T10:06:53.953Z,101342.44
2023-05-11T10:09:27.538Z,101343.97
2023-05-11T10:11:56.603Z,101336.28
2023-05-11T10:14:27.640Z,101329.19
2023-05-11T10:16:57.917Z,101333.59
2023-05-11T10:19:25.208Z,101335.19
2023-05-11T10:21:52.883Z,101342.09
2023-05-11T10:24:20.714Z,101343.97
2023-05-11T10:26:48.687Z,101325.56
2023-05-11T10:29:19.233Z,101325.00
2023-05-11T10:31:48.416Z,101328.94
2023-05-11T10:34:16.743Z,101331.91
2023-05-11T10:36:46.494Z,101337.41
2023-05-11T10:39:13.422Z,101340.44
2023-05-11T10:41:51.819Z,101338.31
2023-05-11T10:44:33.548Z,101333.09
2023-05-11T10:47:18.486Z,101327.25
2023-05-11T10:50:16.598Z,101327.34
2023-05-11T10:53:13.096Z,101327.31
2023-05-11T10:55:57.175Z,101332.19
2023-05-11T10:58:53.027Z,101326.06
2023-05-11T11:01:52.434Z,101322.94
2023-05-11T11:04:20.569Z,101316.03
2023-05-11T11:06:47.659Z,101321.09
2023-05-11T11:09:16.542Z,101329.13
2023-05-11T11:11:48.088Z,101321.28
2023-05-11T11:14:17.928Z,101338.69
2023-05-11T11:17:15.975Z,101355.75
2023-05-11T11:19:43.491Z,101352.25
2023-05-11T11:22:36.454Z,101352.09
2023-05-11T11:25:14.031Z,101350.09
2023-05-11T11:27:41.043Z,101350.47
2023-05-11T11:30:21.700Z,101334.31
2023-05-11T11:32:52.282Z,101359.09
2023-05-11T11:35:44.894Z,101332.78
2023-05-11T11:38:19.953Z,101330.25
2023-05-11T11:40:55.107Z,101327.91
2023-05-11T11:43:28.838Z,101327.50
2023-05-11T11:46:00.912Z,101328.03
2023-05-11T11:48:38.176Z,101318.59
2023-05-11T11:51:11.753Z,101320.75
2023-05-11T11:53:41.534Z,101320.91
2023-05-11T11:56:15.567Z,101311.66
2023-05-11T11:58:45.192Z,101322.59
2023-05-11T12:01:20.926Z,101318.41
2023-05-11T12:04:37.521Z,101325.00
2023-05-11T12:07:09.365Z,101316.44
2023-05-11T12:09:37.195Z,101321.50
2023-05-11T12:12:06.599Z,101314.16
2023-05-11T12:14:34.774Z,101309.97
2023-05-11T12:17:04.542Z,101303.75
2023-05-11T12:19:31.562Z,101308.72
2023-05-11T12:21:58.629Z,101305.59
2023-05-11T12:24:26.313Z,101303.78
2023-05-11T12:26:57.177Z,101300.84
2023-05-11T12:29:24.705Z,101297.28
2023-05-11T12:31:51.715Z,101303.09
2023-05-11T12:34:22.701Z,101299.28
2023-05-11T12:36:52.611Z,101300.28
2023-05-11T12:39:21.766Z,101299.59
2023-05-11T12:41:51.721Z,101306.41
2023-05-11T12:44:20.742Z,101310.31
2023-05-11T12:46:49.708Z,101303.78
2023-05-11T12:49:26.187Z,101303.50
2023-05-11T12:52:00.003Z,101308.25
2023-05-11T12:54:34.287Z,101301.50
2023-05-11T12:57:02.885Z,101309.28
2023-05-11T12:59:39.638Z,101304.22
2023-05-11T13:02:12.133Z,101313.16
2023-05-11T13:04:41.515Z,101305.19
2023-05-11T13:07:11.306Z,101306.19
2023-05-11T13:09:39.503Z,101312.56
2023-05-11T13:12:17.453Z,101300.03
2023-05-11T13:14:49.525Z,101298.97
2023-05-11T13:17:37.497Z,101296.59
2023-05-11T13:20:26.430Z,101289.53
2023-05-11T13:23:22.884Z,101295.69
2023-05-11T13:25:54.073Z,101288.47
2023-05-11T13:28:24.474Z,101302.69
2023-05-11T13:30:59.071Z,101298.47
2023-05-11T13:33:26.102Z,101298.19
2023-05-11T13:35:53.017Z,101290.16
2023-05-11T13:38:19.955Z,101299.72
2023-05-11T13:40:46.973Z,101297.28
2023-05-11T13:43:13.993Z,101300.91
2023-05-11T13:45:41.409Z,101292.19
2023-05-11T13:48:08.674Z,101298.38
2023-05-11T13:50:35.741Z,101297.75
2023-05-11T13:53:02.970Z,101302.75
2023-05-11T13:55:30.696Z,101293.38
2023-05-11T13:57:58.119Z,101291.28
2023-05-11T14:00:25.302Z,101286.38
2023-05-11T14:02:53.031Z,101286.22
2023-05-11T14:05:20.376Z,101287.03
2023-05-11T14:07:48.714Z,101288.97
2023-05-11T14:10:19.815Z,101286.78
2023-05-11T14:12:46.872Z,101281.66
2023-05-11T14:15:13.970Z,101286.69
2023-05-11T14:17:43.134Z,101284.91
2023-05-11T14:20:12.431Z,101292.94
2023-05-11T14:22:43.248Z,101302.22
2023-05-11T14:25:10.710Z,101308.31
2023-05-11T14:27:37.700Z,101306.41
2023-05-11T14:30:05.899Z,101308.72
2023-05-11T14:32:32.910Z,101300.44
2023-05-11T14:34:59.832Z,101299.53
2023-05-11T14:37:26.890Z,101316.25
2023-05-11T14:39:53.821Z,101308.81
2023-05-11T14:42:20.788Z,101318.91
2023-05-11T14:44:47.783Z,101321.19
2023-05-11T14:47:15.600Z,101318.63
2023-05-11T14:49:42.508Z,101322.56
2023-05-11T14:52:10.885Z,101325.97
2023-05-11T14:54:37.997Z,101331.88
2023-05-11T14:57:05.729Z,101343.66
2023-05-11T14:59:32.719Z,101333.66
2023-05-11T15:02:00.358Z,101328.03
2023-05-11T15:04:27.486Z,101334.09
2023-05-11T15:06:55.338Z,101326.63
2023-05-11T15:09:22.424Z,101330.28
2023-05-11T15:11:49.332Z,101332.81
2023-05-11T15:14:17.798Z,101330.19
2023-05-11T15:16:45.974Z,101339.09
2023-05-11T15:19:13.214Z,101328.78
2023-05-11T15:21:40.538Z,101337.66
2023-05-11T15:24:10.716Z,101318.50
2023-05-11T15:26:38.437Z,101326.59
2023-05-11T15:29:05.490Z,101320.69
2023-05-11T15:31:32.850Z,101319.59
2023-05-11T15:34:00.163Z,101316.34
2023-05-11T15:36:29.733Z,101323.88
2023-05-11T15:38:58.126Z,101318.53
2023-05-11T15:41:25.402Z,101321.97
2023-05-11T15:43:53.046Z,101313.47
2023-05-11T15:46:20.087Z,101321.44
2023-05-11T15:48:47.102Z,101319.38
2023-05-11T15:51:14.221Z,101308.63
2023-05-11T15:53:41.372Z,101309.34
2023-05-11T15:56:09.335Z,101305.03
2023-05-11T15:58:36.332Z,101316.66
2023-05-11T16:01:03.312Z,101313.38
2023-05-11T16:03:30.316Z,101312.59
2023-05-11T16:05:57.509Z,101315.03
2023-05-11T16:08:24.484Z,101313.59
2023-05-11T16:10:51.733Z,101310.97
2023-05-11T16:13:18.794Z,101308.94
2023-05-11T16:15:46.453Z,101316.97
2023-05-11T16:18:14.256Z,101324.41
2023-05-11T16:20:41.326Z,101320.69
2023-05-11T16:23:08.284Z,101311.47
2023-05-11T16:25:35.227Z,101320.59
2023-05-11T16:28:02.168Z,101319.50
2023-05-11T16:30:29.328Z,101314.97
2023-05-11T16:32:56.437Z,101305.72
2023-05-11T16:35:23.478Z,101317.28
2023-05-11T16:37:50.534Z,101316.22
2023-05-11T16:40:20.911Z,101319.22
2023-05-11T16:42:49.075Z,101317.66
2023-05-11T16:45:16.597Z,101335.94
2023-05-11T16:47:46.759Z,101331.25
2023-05-11T16:50:18.509Z,101320.56
2023-05-11T16:52:45.761Z,101330.66
2023-05-11T16:55:15.903Z,101336.16
2023-05-11T16:57:43.945Z,101316.34
2023-05-11T17:00:12.133Z,101322.75
2023-05-11T17:02:39.112Z,101326.22
2023-05-11T17:05:08.142Z,101331.78
2023-05-11T17:07:35.043Z,101338.81
2023-05-11T17:10:02.172Z,101333.22
2023-05-11T17:12:30.017Z,101330.97
2023-05-11T17:14:57.558Z,101329.22
2023-05-11T17:17:24.646Z,101331.53
2023-05-11T17:19:51.865Z,101341.03
2023-05-11T17:22:19.010Z,101331.13
2023-05-11T17:24:46.833Z,101331.28
2023-05-11T17:27:13.860Z,101333.41
2023-05-11T17:29:43.613Z,101329.34
2023-05-11T17:32:10.715Z,101334.78
2023-05-11T17:34:37.839Z,101335.25
2023-05-11T17:37:05.040Z,101329.56
2023-05-11T17:39:32.115Z,101314.22
2023-05-11T17:41:59.275Z,101327.88
2023-05-11T17:44:26.253Z,101320.41
2023-05-11T17:46:53.293Z,101324.88
2023-05-11T17:49:20.410Z,101319.06
2023-05-11T17:51:47.571Z,101332.22
2023-05-11T17:54:14.598Z,101330.72
2023-05-11T17:56:41.599Z,101327.78
2023-05-11T17:59:09.154Z,101335.25
2023-05-11T18:01:36.409Z,101335.66
2023-05-11T18:04:04.654Z,101334.91
2023-05-11T18:06:31.827Z,101325.16
2023-05-11T18:08:59.723Z,101334.84
2023-05-11T18:11:27.755Z,101340.44
2023-05-11T18:13:54.943Z,101345.66
2023-05-11T18:16:22.033Z,101341.91
2023-05-11T18:18:49.223Z,101337.47
2023-05-11T18:21:16.602Z,101339.56
2023-05-11T18:23:43.579Z,101342.47
2023-05-11T18:26:11.274Z,101343.72
2023-05-11T18:28:38.192Z,101352.47
2023-05-11T18:31:05.171Z,101340.69
2023-05-11T18:33:32.121Z,101338.69
2023-05-11T18:35:59.042Z,101347.06
2023-05-11T18:38:26.190Z,101334.13
2023-05-11T18:40:53.913Z,101353.44
2023-05-11T18:43:20.878Z,101346.03
2023-05-11T18:45:50.183Z,101356.03
2023-05-11T18:48:17.165Z,101354.50
2023-05-11T18:50:44.156Z,101351.19
2023-05-11T18:53:11.103Z,101356.78
2023-05-11T18:55:51.952Z,101353.28
2023-05-11T18:58:20.218Z,101369.94
2023-05-11T19:00:48.678Z,101358.72
2023-05-11T19:03:17.524Z,101373.94
2023-05-11T19:05:44.907Z,101374.13
2023-05-11T19:08:12.436Z,101388.16
2023-05-11T19:10:40.513Z,101388.91
2023-05-11T19:13:08.337Z,101386.19
2023-05-11T19:15:35.700Z,101381.47
2023-05-11T19:18:02.912Z,101390.56
2023-05-11T19:20:30.004Z,101389.28
2023-05-11T19:22:57.350Z,101391.78
2023-05-11T19:25:24.314Z,101393.66
2023-05-11T19:27:52.126Z,101397.91
2023-05-11T19:30:19.556Z,101391.81
2023-05-11T19:32:47.974Z,101406.28
2023-05-11T19:35:15.082Z,101411.22
2023-05-11T19:37:42.369Z,101403.78
2023-05-11T19:40:26.517Z,101406.47
2023-05-11T19:42:56.503Z,101414.19
2023-05-11T19:45:23.674Z,101411.09
2023-05-11T19:47:51.016Z,101412.00
2023-05-11T19:50:20.394Z,101405.88
2023-05-11T19:52:48.902Z,101418.09
2023-05-11T19:55:16.020Z,101408.88
2023-05-11T19:57:43.036Z,101413.94
2023-05-11T20:00:11.824Z,101414.72
2023-05-11T20:02:38.920Z,101416.75
2023-05-11T20:05:06.690Z,101422.94
2023-05-11T20:07:34.142Z,101426.41
2023-05-11T20:10:01.268Z,101427.03
2023-05-11T20:12:28.303Z,101425.59
2023-05-11T20:14:55.221Z,101432.19
2023-05-11T20:17:22.212Z,101431.41
2023-05-11T20:19:49.302Z,101431.69
2023-05-11T20:22:16.231Z,101438.53
2023-05-11T20:24:43.201Z,101433.16
2023-05-11T20:27:11.102Z,101439.13
2023-05-11T20:29:40.324Z,101441.78
2023-05-11T20:32:07.807Z,101441.38
2023-05-11T20:34:35.595Z,101437.56
2023-05-11T20:37:02.619Z,101442.78
2023-05-11T20:39:29.775Z,101446.31
2023-05-11T20:41:58.998Z,101441.16
2023-05-11T20:44:26.391Z,101425.44
2023-05-11T20:46:53.418Z,101430.94
2023-05-11T20:49:34.567Z,101433.38
2023-05-11T20:52:06.264Z,101432.19
2023-05-11T20:54:35.031Z,101431.16
2023-05-11T20:57:05.991Z,101435.66
2023-05-11T21:02:03.144Z,101437.69
2023-05-11T21:04:31.627Z,101441.16
2023-05-11T21:06:58.645Z,101447.06
2023-05-11T21:09:25.689Z,101454.84
2023-05-11T21:11:52.798Z,101452.88
2023-05-11T21:14:20.247Z,101454.50
2023-05-11T21:16:48.036Z,101448.75
2023-05-11T21:19:18.538Z,101442.19
2023-05-11T21:21:47.068Z,101451.28
2023-05-11T21:24:14.114Z,101457.84
2023-05-11T21:26:41.337Z,101453.09
2023-05-11T21:29:08.358Z,101457.19
2023-05-11T21:31:35.779Z,101457.00
2023-05-11T21:34:02.686Z,101453.97
2023-05-11T21:36:29.614Z,101448.19
2023-05-11T21:38:56.601Z,101450.22
2023-05-11T21:41:23.760Z,101437.28
2023-05-11T21:43:50.813Z,101455.41
2023-05-11T21:46:17.868Z,101452.31
2023-05-11T21:48:44.932Z,101442.25
2023-05-11T21:51:11.885Z,101459.72
2023-05-11T21:53:39.581Z,101446.75
2023-05-11T21:56:06.790Z,101446.13
2023-05-11T21:58:33.691Z,101453.50
2023-05-11T22:01:01.446Z,101441.00
2023-05-11T22:03:31.499Z,101437.97
2023-05-11T22:05:58.741Z,101435.28
2023-05-11T22:08:25.768Z,101450.66
2023-05-11T22:10:52.798Z,101445.47
2023-05-11T22:13:19.852Z,101433.47
2023-05-11T22:15:47.146Z,101437.25
2023-05-11T22:18:14.030Z,101440.53
2023-05-11T22:20:40.948Z,101444.41
2023-05-11T22:23:08.062Z,101444.53
2023-05-11T22:25:35.080Z,101444.38
2023-05-11T22:28:02.146Z,101455.94
2023-05-11T22:30:29.107Z,101459.47
2023-05-11T22:32:56.277Z,101449.75
2023-05-11T22:35:23.456Z,101458.78
2023-05-11T22:37:50.593Z,101445.13
2023-05-11T22:40:18.503Z,101461.78
2023-05-11T22:42:45.655Z,101452.69
2023-05-11T22:45:12.799Z,101445.09
2023-05-11T22:47:40.105Z,101454.63
2023-05-11T22:50:11.622Z,101445.31
2023-05-11T22:52:39.008Z,101448.78
2023-05-11T22:55:06.846Z,101453.38
2023-05-11T22:57:33.758Z,101453.44
2023-05-11T23:00:00.814Z,101446.13
2023-05-11T23:02:29.618Z,101463.03
2023-05-11T23:04:56.713Z,101459.47
2023-05-11T23:07:23.766Z,101455.25
2023-05-11T23:09:52.661Z,101455.53
2023-05-11T23:12:19.884Z,101450.84
2023-05-11T23:14:47.074Z,101452.75
2023-05-11T23:17:14.077Z,101469.69
2023-05-11T23:19:41.593Z,101468.78
2023-05-11T23:22:09.093Z,101464.31
2023-05-11T23:24:36.124Z,101465.34
2023-05-11T23:27:03.463Z,101457.19
2023-05-11T23:29:30.500Z,101467.34
2023-05-11T23:31:57.481Z,101464.03
2023-05-11T23:34:24.416Z,101462.13
2023-05-11T23:36:51.378Z,101462.91
2023-05-11T23:39:18.521Z,101459.19
2023-05-11T23:41:45.568Z,101456.06
2023-05-11T23:44:12.531Z,101457.41
2023-05-11T23:46:39.469Z,101458.00
2023-05-11T23:49:06.428Z,101464.44
2023-05-11T23:51:33.603Z,101459.72
2023-05-11T23:54:00.834Z,101455.34
2023-05-11T23:56:27.957Z,101450.78
2023-05-11T23:58:54.937Z,101460.75
